createdAt,value
2022-09-22T00:01:38.998Z,8.20
2022-09-22T00:04:11.150Z,3.30
2022-09-22T00:06:43.621Z,7.60
2022-09-22T00:09:13.933Z,3.30
2022-09-22T00:11:44.947Z,3.80
2022-09-22T00:14:22.810Z,2.90
2022-09-22T00:16:57.552Z,2.90
2022-09-22T00:19:29.410Z,2.40
2022-09-22T00:21:57.345Z,2.70
2022-09-22T00:24:26.909Z,2.60
2022-09-22T00:26:57.857Z,6.00
2022-09-22T00:29:28.580Z,2.30
2022-09-22T00:31:57.434Z,2.50
2022-09-22T00:34:31.425Z,6.90
2022-09-22T00:36:59.267Z,3.40
2022-09-22T00:39:30.827Z,4.60
2022-09-22T00:41:58.700Z,9.90
2022-09-22T00:44:26.422Z,4.90
2022-09-22T00:47:04.732Z,3.00
2022-09-22T00:49:44.771Z,3.50
2022-09-22T00:52:16.158Z,3.00
2022-09-22T00:54:44.515Z,3.00
2022-09-22T00:57:19.538Z,4.90
2022-09-22T00:59:50.203Z,2.90
2022-09-22T01:02:19.947Z,7.50
2022-09-22T01:04:51.742Z,6.20
2022-09-22T01:07:23.050Z,3.40
2022-09-22T01:09:52.399Z,6.30
2022-09-22T01:12:20.356Z,9.70
2022-09-22T01:15:25.649Z,10.40
2022-09-22T01:18:13.824Z,10.50
2022-09-22T01:21:03.595Z,6.90
2022-09-22T01:24:02.416Z,33.50
2022-09-22T01:26:56.599Z,22.20
2022-09-22T01:29:39.754Z,8.90
2022-09-22T01:32:37.469Z,6.50
2022-09-22T01:35:18.945Z,13.40
2022-09-22T01:38:05.178Z,3.00
2022-09-22T01:40:43.217Z,5.70
2022-09-22T01:43:25.128Z,6.40
2022-09-22T01:45:55.046Z,3.40
2022-09-22T01:48:27.890Z,3.30
2022-09-22T01:51:22.552Z,6.60
2022-09-22T01:56:28.059Z,7.10
2022-09-22T01:59:02.755Z,10.30
2022-09-22T02:01:41.744Z,5.50
2022-09-22T02:04:22.489Z,9.60
2022-09-22T02:06:56.008Z,8.40
2022-09-22T02:09:27.259Z,6.10
2022-09-22T02:11:55.370Z,8.50
2022-09-22T02:14:25.340Z,10.30
2022-09-22T02:16:54.511Z,8.90
2022-09-22T02:19:40.780Z,14.00
2022-09-22T02:22:11.177Z,11.60
2022-09-22T02:24:45.620Z,15.70
2022-09-22T02:27:36.556Z,6.50
2022-09-22T02:30:10.776Z,13.40
2022-09-22T02:32:41.258Z,12.70
2022-09-22T02:35:10.128Z,14.10
2022-09-22T02:37:51.660Z,12.30
2022-09-22T02:40:30.699Z,11.00
2022-09-22T02:43:06.663Z,8.30
2022-09-22T02:45:38.406Z,8.90
2022-09-22T02:48:12.573Z,11.50
2022-09-22T02:50:42.722Z,5.30
2022-09-22T02:53:16.537Z,17.00
2022-09-22T02:55:46.139Z,18.80
2022-09-22T02:58:16.643Z,24.90
2022-09-22T03:00:45.743Z,7.30
2022-09-22T03:03:13.602Z,18.50
2022-09-22T03:05:41.415Z,19.50
2022-09-22T03:08:09.214Z,12.70
2022-09-22T03:10:37.078Z,42.30
2022-09-22T03:13:20.225Z,24.50
2022-09-22T03:15:49.173Z,7.50
2022-09-22T03:18:17.073Z,16.60
2022-09-22T03:20:45.780Z,19.80
2022-09-22T03:23:13.712Z,34.40
2022-09-22T03:25:41.583Z,14.30
2022-09-22T03:28:09.499Z,47.70
2022-09-22T03:30:40.415Z,42.30
2022-09-22T03:33:08.662Z,35.30
2022-09-22T03:35:36.569Z,28.40
2022-09-22T03:38:05.232Z,12.00
2022-09-22T03:40:33.133Z,10.20
2022-09-22T03:43:01.709Z,10.70
2022-09-22T03:45:29.499Z,11.10
2022-09-22T03:47:59.045Z,24.60
2022-09-22T03:50:28.537Z,45.90
2022-09-22T03:52:57.933Z,27.00
2022-09-22T03:55:25.893Z,16.30
2022-09-22T03:57:53.733Z,34.70
2022-09-22T04:00:28.752Z,61.40
2022-09-22T04:03:03.028Z,16.90
2022-09-22T04:05:50.389Z,33.70
2022-09-22T04:08:22.908Z,11.00
2022-09-22T04:10:50.696Z,44.60
2022-09-22T04:13:18.634Z,42.10
2022-09-22T04:15:46.541Z,21.20
2022-09-22T04:18:41.363Z,59.80
2022-09-22T04:21:09.686Z,31.00
2022-09-22T04:23:37.795Z,41.30
2022-09-22T04:26:05.832Z,55.30
2022-09-22T04:28:33.763Z,70.20
2022-09-22T04:31:01.914Z,41.10
2022-09-22T04:33:29.793Z,48.20
2022-09-22T04:35:57.822Z,84.50
2022-09-22T04:38:26.131Z,48.30
2022-09-22T04:40:53.943Z,78.60
2022-09-22T04:43:21.821Z,35.40
2022-09-22T04:45:49.817Z,38.60
2022-09-22T04:48:17.819Z,33.10
2022-09-22T04:50:48.210Z,43.40
2022-09-22T04:53:16.479Z,12.70
2022-09-22T04:55:44.350Z,25.40
2022-09-22T04:58:12.382Z,37.70
2022-09-22T05:00:40.797Z,20.00
2022-09-22T05:03:10.717Z,18.80
2022-09-22T05:05:38.878Z,25.50
2022-09-22T05:08:07.830Z,37.10
2022-09-22T05:10:36.996Z,22.30
2022-09-22T05:13:06.029Z,7.70
2022-09-22T05:15:35.000Z,19.30
2022-09-22T05:18:02.939Z,11.00
2022-09-22T05:20:30.861Z,28.90
2022-09-22T05:23:07.294Z,33.10
2022-09-22T05:25:55.095Z,24.70
2022-09-22T05:28:24.249Z,51.50
2022-09-22T05:30:52.194Z,37.70
2022-09-22T05:33:19.976Z,92.80
2022-09-22T05:35:48.055Z,32.00
2022-09-22T05:38:15.897Z,34.10
2022-09-22T05:40:47.399Z,44.90
2022-09-22T05:43:16.278Z,24.60
2022-09-22T05:45:44.870Z,20.90
2022-09-22T05:48:12.786Z,31.00
2022-09-22T05:50:41.373Z,18.80
2022-09-22T05:53:10.707Z,18.10
2022-09-22T05:55:39.757Z,12.60
2022-09-22T05:58:09.503Z,24.70
2022-09-22T06:00:58.265Z,12.00
2022-09-22T06:03:26.450Z,32.50
2022-09-22T06:05:54.263Z,51.10
2022-09-22T06:08:22.237Z,31.30
2022-09-22T06:10:51.441Z,21.30
2022-09-22T06:13:19.407Z,24.40
2022-09-22T06:16:07.291Z,41.20
2022-09-22T06:18:35.210Z,42.40
2022-09-22T06:21:08.993Z,58.50
2022-09-22T06:23:42.020Z,16.70
2022-09-22T06:26:11.100Z,25.40
2022-09-22T06:28:39.174Z,27.10
2022-09-22T06:31:07.241Z,35.50
2022-09-22T06:33:35.926Z,57.80
2022-09-22T06:36:10.334Z,26.30
2022-09-22T06:38:38.517Z,34.90
2022-09-22T06:41:07.448Z,15.80
2022-09-22T06:43:38.027Z,17.60
2022-09-22T06:46:06.112Z,34.30
2022-09-22T06:48:34.725Z,16.20
2022-09-22T06:51:05.501Z,13.40
2022-09-22T06:53:35.160Z,17.10
2022-09-22T06:56:08.437Z,19.30
2022-09-22T06:58:58.643Z,17.30
2022-09-22T07:01:29.350Z,20.10
2022-09-22T07:03:57.432Z,19.10
2022-09-22T07:06:26.361Z,20.90
2022-09-22T07:08:54.468Z,23.40
2022-09-22T07:11:23.751Z,18.50
2022-09-22T07:13:53.633Z,22.70
2022-09-22T07:16:24.335Z,20.10
2022-09-22T07:18:54.685Z,20.60
2022-09-22T07:21:26.508Z,21.80
2022-09-22T07:23:55.740Z,17.60
2022-09-22T07:26:29.549Z,17.40
2022-09-22T07:29:00.752Z,18.30
2022-09-22T07:31:32.429Z,17.80
2022-09-22T07:34:01.251Z,18.80
2022-09-22T07:36:31.906Z,13.20
2022-09-22T07:39:08.768Z,12.90
2022-09-22T07:41:42.038Z,14.30
2022-09-22T07:44:30.694Z,12.40
2022-09-22T07:46:59.762Z,14.80
2022-09-22T07:49:27.953Z,14.00
2022-09-22T07:51:57.858Z,12.50
2022-09-22T07:54:37.507Z,13.10
2022-09-22T07:57:11.238Z,12.70
2022-09-22T07:59:42.299Z,13.60
2022-09-22T08:02:12.768Z,13.10
2022-09-22T08:04:41.920Z,11.30
2022-09-22T08:07:10.703Z,12.40
2022-09-22T08:09:39.256Z,11.20
2022-09-22T08:12:10.631Z,9.70
2022-09-22T08:14:39.132Z,8.60
2022-09-22T08:17:07.521Z,10.60
2022-09-22T08:19:36.653Z,12.30
2022-09-22T08:22:04.966Z,10.10
2022-09-22T08:24:35.039Z,8.40
2022-09-22T08:27:03.664Z,7.80
2022-09-22T08:29:31.492Z,6.90
2022-09-22T08:31:59.453Z,7.50
2022-09-22T08:34:27.381Z,7.20
2022-09-22T08:36:56.176Z,10.30
2022-09-22T08:39:24.250Z,8.30
2022-09-22T08:41:55.564Z,8.90
2022-09-22T08:44:36.968Z,9.50
2022-09-22T08:47:05.811Z,7.00
2022-09-22T08:50:10.606Z,6.70
2022-09-22T08:52:47.644Z,5.10
2022-09-22T08:55:24.039Z,5.30
2022-09-22T08:58:09.203Z,4.50
2022-09-22T09:00:42.885Z,5.90
2022-09-22T09:06:00.480Z,3.90
2022-09-22T09:08:41.640Z,4.70
2022-09-22T09:11:48.183Z,4.90
2022-09-22T09:14:36.382Z,6.90
2022-09-22T09:17:35.280Z,4.00
2022-09-22T09:20:18.752Z,5.50
2022-09-22T09:22:56.024Z,3.30
2022-09-22T09:25:36.831Z,3.00
2022-09-22T09:28:18.851Z,3.90
2022-09-22T09:30:52.572Z,3.50
2022-09-22T09:33:31.785Z,2.70
2022-09-22T09:35:59.867Z,6.30
2022-09-22T09:38:33.489Z,3.10
2022-09-22T09:43:45.139Z,2.80
2022-09-22T09:46:48.672Z,2.10
2022-09-22T09:49:19.220Z,4.30
2022-09-22T09:52:01.096Z,2.10
2022-09-22T09:54:29.425Z,1.70
2022-09-22T09:57:10.503Z,2.10
2022-09-22T10:00:18.427Z,2.60
2022-09-22T10:03:27.634Z,2.30
2022-09-22T10:06:02.886Z,2.40
2022-09-22T10:08:36.631Z,2.90
2022-09-22T10:11:05.097Z,2.00
2022-09-22T10:13:36.235Z,1.90
2022-09-22T10:16:27.342Z,2.00
2022-09-22T10:18:59.121Z,2.10
2022-09-22T10:21:29.083Z,2.70
2022-09-22T10:24:00.193Z,1.80
2022-09-22T10:26:33.279Z,2.00
2022-09-22T10:29:07.085Z,3.40
2022-09-22T10:31:38.311Z,1.30
2022-09-22T10:34:26.249Z,1.50
2022-09-22T10:36:55.317Z,1.50
2022-09-22T10:39:33.143Z,1.50
2022-09-22T10:42:06.330Z,1.40
2022-09-22T10:44:39.305Z,3.70
2022-09-22T10:47:15.078Z,2.20
2022-09-22T10:52:37.619Z,2.00
2022-09-22T10:55:28.000Z,1.70
2022-09-22T10:58:07.081Z,1.20
2022-09-22T11:00:39.249Z,1.80
2022-09-22T11:03:40.824Z,1.70
2022-09-22T11:07:10.777Z,2.00
2022-09-22T11:10:12.865Z,1.80
2022-09-22T11:13:09.974Z,1.70
2022-09-22T11:15:41.591Z,1.50
2022-09-22T11:18:19.345Z,1.60
2022-09-22T11:21:31.324Z,4.80
2022-09-22T11:24:20.549Z,1.20
2022-09-22T11:26:57.655Z,1.70
2022-09-22T11:29:41.980Z,3.20
2022-09-22T11:34:57.056Z,1.80
2022-09-22T11:38:09.740Z,1.60
2022-09-22T11:40:54.425Z,1.80
2022-09-22T11:43:48.357Z,3.30
2022-09-22T11:46:31.662Z,1.30
2022-09-22T11:49:27.780Z,5.40
2022-09-22T11:52:07.966Z,3.20
2022-09-22T11:54:54.494Z,1.70
2022-09-22T11:57:34.846Z,1.80
2022-09-22T12:02:50.433Z,2.10
2022-09-22T12:05:42.488Z,4.00
2022-09-22T12:08:26.362Z,2.00
2022-09-22T12:11:00.363Z,1.70
2022-09-22T12:13:31.152Z,4.40
2022-09-22T12:16:18.997Z,1.10
2022-09-22T12:18:58.810Z,1.10
2022-09-22T12:21:55.085Z,0.90
2022-09-22T12:24:24.298Z,0.80
2022-09-22T12:26:54.027Z,0.90
2022-09-22T12:29:27.763Z,0.70
2022-09-22T12:31:59.118Z,2.10
2022-09-22T12:34:32.042Z,1.10
2022-09-22T12:37:17.235Z,1.20
2022-09-22T12:40:14.829Z,3.90
2022-09-22T12:42:49.735Z,1.20
2022-09-22T12:45:38.371Z,3.00
2022-09-22T12:48:27.619Z,1.30
2022-09-22T12:51:24.550Z,1.10
2022-09-22T12:54:25.354Z,1.00
2022-09-22T12:59:54.686Z,1.50
2022-09-22T13:02:40.902Z,1.00
2022-09-22T13:05:08.978Z,1.10
2022-09-22T13:07:41.726Z,1.30
2022-09-22T13:10:22.295Z,1.20
2022-09-22T13:13:13.438Z,2.00
2022-09-22T13:15:45.727Z,1.20
2022-09-22T13:18:32.153Z,1.20
2022-09-22T13:21:13.555Z,1.10
2022-09-22T13:23:54.052Z,1.50
2022-09-22T13:26:26.820Z,2.00
2022-09-22T13:29:18.066Z,2.20
2022-09-22T13:31:53.053Z,3.10
2022-09-22T13:34:29.241Z,1.20
2022-09-22T13:37:07.210Z,4.90
2022-09-22T13:39:47.911Z,1.10
2022-09-22T13:42:23.472Z,3.50
2022-09-22T13:45:18.954Z,7.10
2022-09-22T13:47:48.943Z,1.00
2022-09-22T13:50:22.397Z,0.90
2022-09-22T13:52:52.085Z,1.70
2022-09-22T13:55:33.335Z,1.00
2022-09-22T13:58:05.677Z,3.50
2022-09-22T14:01:08.714Z,1.20
2022-09-22T14:03:38.991Z,1.00
2022-09-22T14:06:16.183Z,1.00
2022-09-22T14:08:46.279Z,6.40
2022-09-22T14:11:18.514Z,1.80
2022-09-22T14:13:49.244Z,1.70
2022-09-22T14:16:21.728Z,3.40
2022-09-22T14:18:57.724Z,2.60
2022-09-22T14:21:45.990Z,4.10
2022-09-22T14:24:14.513Z,9.80
2022-09-22T14:26:49.929Z,4.10
2022-09-22T14:29:42.755Z,5.60
2022-09-22T14:32:30.318Z,2.20
2022-09-22T14:35:02.920Z,1.80
2022-09-22T14:37:34.764Z,6.20
2022-09-22T14:40:11.478Z,6.60
2022-09-22T14:42:41.679Z,4.30
2022-09-22T14:45:12.605Z,2.00
2022-09-22T14:47:40.811Z,2.30
2022-09-22T14:50:38.420Z,1.80
2022-09-22T14:53:37.975Z,1.90
2022-09-22T14:56:17.722Z,2.60
2022-09-22T14:58:53.234Z,1.00
2022-09-22T15:01:49.434Z,1.10
2022-09-22T15:04:27.584Z,2.40
2022-09-22T15:07:26.049Z,4.80
2022-09-22T15:09:58.128Z,1.30
2022-09-22T15:12:49.556Z,2.90
2022-09-22T15:15:22.792Z,3.80
2022-09-22T15:18:19.158Z,1.60
2022-09-22T15:20:51.822Z,2.20
2022-09-22T15:23:34.328Z,1.50
2022-09-22T15:26:06.513Z,2.10
2022-09-22T15:28:48.385Z,10.20
2022-09-22T15:31:27.186Z,6.40
2022-09-22T15:34:01.647Z,18.40
2022-09-22T15:36:33.214Z,10.70
2022-09-22T15:39:20.827Z,8.90
2022-09-22T15:41:50.565Z,4.10
2022-09-22T15:44:20.691Z,8.60
2022-09-22T15:46:54.207Z,4.10
2022-09-22T15:49:27.312Z,1.00
2022-09-22T15:51:58.572Z,1.50
2022-09-22T15:54:29.445Z,3.40
2022-09-22T15:56:59.982Z,2.50
2022-09-22T15:59:32.650Z,1.70
2022-09-22T16:02:02.515Z,2.30
2022-09-22T16:04:32.743Z,3.20
2022-09-22T16:07:08.564Z,4.40
2022-09-22T16:09:37.334Z,11.60
2022-09-22T16:12:08.434Z,7.50
2022-09-22T16:14:44.079Z,4.90
2022-09-22T16:17:11.958Z,3.90
2022-09-22T16:19:39.856Z,3.40
2022-09-22T16:22:07.760Z,5.20
2022-09-22T16:24:36.417Z,3.70
2022-09-22T16:27:06.504Z,6.70
2022-09-22T16:29:37.571Z,14.60
2022-09-22T16:32:06.011Z,34.70
2022-09-22T16:34:35.191Z,97.40
2022-09-22T16:37:03.510Z,39.40
2022-09-22T16:39:31.397Z,44.90
2022-09-22T16:42:05.834Z,65.60
2022-09-22T16:44:33.645Z,49.70
2022-09-22T16:47:02.336Z,29.70
2022-09-22T16:49:32.871Z,24.70
2022-09-22T16:52:00.790Z,14.10
2022-09-22T16:54:28.746Z,6.90
2022-09-22T16:56:56.794Z,16.30
2022-09-22T16:59:24.784Z,80.60
2022-09-22T17:01:52.847Z,36.50
2022-09-22T17:04:20.807Z,14.60
2022-09-22T17:06:49.865Z,21.20
2022-09-22T17:09:18.298Z,18.50
2022-09-22T17:11:48.850Z,23.70
2022-09-22T17:14:23.120Z,20.70
2022-09-22T17:16:56.811Z,20.60
2022-09-22T17:19:27.738Z,15.70
2022-09-22T17:21:56.505Z,11.40
2022-09-22T17:24:26.722Z,12.00
2022-09-22T17:26:58.354Z,10.00
2022-09-22T17:29:30.114Z,8.80
2022-09-22T17:32:24.527Z,9.00
2022-09-22T17:34:53.350Z,10.50
2022-09-22T17:37:21.724Z,11.60
2022-09-22T17:39:50.222Z,13.20
2022-09-22T17:42:18.160Z,12.40
2022-09-22T17:44:46.081Z,13.30
2022-09-22T17:47:32.872Z,10.40
2022-09-22T17:50:19.513Z,15.60
2022-09-22T17:53:13.530Z,11.70
2022-09-22T17:55:42.215Z,7.30
2022-09-22T17:58:10.230Z,6.50
2022-09-22T18:00:38.520Z,4.40
2022-09-22T18:03:10.202Z,4.70
2022-09-22T18:06:04.618Z,13.40
2022-09-22T18:08:32.702Z,8.30
2022-09-22T18:11:01.694Z,11.60
2022-09-22T18:13:29.815Z,16.60
2022-09-22T18:16:21.224Z,18.70
2022-09-22T18:18:49.746Z,16.00
2022-09-22T18:21:19.570Z,16.30
2022-09-22T18:23:49.149Z,9.80
2022-09-22T18:26:18.498Z,15.60
2022-09-22T18:28:52.606Z,5.80
2022-09-22T18:31:41.161Z,5.80
2022-09-22T18:34:09.922Z,12.80
2022-09-22T18:36:53.973Z,5.30
2022-09-22T18:39:34.875Z,6.50
2022-09-22T18:42:07.768Z,8.20
2022-09-22T18:44:50.310Z,7.80
2022-09-22T18:47:28.590Z,6.20
2022-09-22T18:50:02.004Z,6.20
2022-09-22T18:52:33.204Z,8.90
2022-09-22T18:55:19.983Z,12.20
2022-09-22T18:57:51.219Z,23.20
2022-09-22T19:00:26.679Z,15.60
2022-09-22T19:03:03.630Z,17.00
2022-09-22T19:05:40.895Z,11.90
2022-09-22T19:08:12.923Z,9.20
2022-09-22T19:10:40.980Z,14.70
2022-09-22T19:13:08.893Z,13.30
2022-09-22T19:15:40.102Z,12.90
2022-09-22T19:18:10.022Z,16.00
2022-09-22T19:20:38.454Z,9.00
2022-09-22T19:23:07.676Z,17.60
2022-09-22T19:25:35.761Z,16.00
2022-09-22T19:28:04.248Z,13.60
2022-09-22T19:30:33.375Z,18.60
2022-09-22T19:33:03.023Z,22.70
2022-09-22T19:35:31.103Z,30.00
2022-09-22T19:37:59.796Z,18.60
2022-09-22T19:40:27.660Z,12.90
2022-09-22T19:42:55.753Z,14.20
2022-09-22T19:45:26.356Z,13.40
2022-09-22T19:47:58.567Z,14.80
2022-09-22T19:50:26.530Z,8.80
2022-09-22T19:52:54.669Z,9.90
2022-09-22T19:55:22.795Z,8.30
2022-09-22T19:57:54.103Z,10.60
2022-09-22T20:00:26.455Z,9.40
2022-09-22T20:03:01.483Z,14.10
2022-09-22T20:05:37.094Z,7.00
2022-09-22T20:08:15.887Z,11.80
2022-09-22T20:10:47.126Z,9.70
2022-09-22T20:13:33.790Z,8.20
2022-09-22T20:16:03.492Z,7.30
2022-09-22T20:18:33.328Z,8.00
2022-09-22T20:21:04.761Z,9.50
2022-09-22T20:23:33.279Z,12.40
2022-09-22T20:26:01.352Z,6.40
2022-09-22T20:28:29.664Z,12.00
2022-09-22T20:30:57.715Z,6.80
2022-09-22T20:33:25.843Z,6.90
2022-09-22T20:35:55.642Z,6.10
2022-09-22T20:38:24.088Z,10.60
2022-09-22T20:40:52.174Z,17.10
2022-09-22T20:43:20.789Z,12.30
2022-09-22T20:45:49.380Z,12.50
2022-09-22T20:48:19.175Z,9.70
2022-09-22T20:50:56.764Z,13.40
2022-09-22T20:53:25.276Z,27.70
2022-09-22T20:56:01.553Z,12.20
2022-09-22T20:58:32.464Z,12.70
2022-09-22T21:01:02.250Z,15.20
2022-09-22T21:03:30.435Z,9.20
2022-09-22T21:06:06.170Z,10.30
2022-09-22T21:08:56.969Z,7.30
2022-09-22T21:11:26.543Z,9.70
2022-09-22T21:13:58.898Z,13.60
2022-09-22T21:16:26.996Z,10.50
2022-09-22T21:19:04.529Z,10.50
2022-09-22T21:21:35.971Z,8.10
2022-09-22T21:24:05.375Z,7.60
2022-09-22T21:26:33.406Z,9.90
2022-09-22T21:29:01.400Z,9.10
2022-09-22T21:31:29.565Z,10.80
2022-09-22T21:33:57.600Z,8.00
2022-09-22T21:36:25.653Z,7.60
2022-09-22T21:38:59.280Z,9.90
2022-09-22T21:41:29.800Z,8.70
2022-09-22T21:43:58.273Z,10.80
2022-09-22T21:46:31.570Z,9.70
2022-09-22T21:49:02.699Z,8.50
2022-09-22T21:51:36.299Z,10.20
2022-09-22T21:54:05.413Z,8.80
2022-09-22T21:56:34.684Z,14.30
2022-09-22T21:59:03.957Z,11.90
2022-09-22T22:01:36.182Z,11.80
2022-09-22T22:04:08.339Z,13.20
2022-09-22T22:06:40.595Z,5.70
2022-09-22T22:09:15.216Z,7.10
2022-09-22T22:11:55.835Z,13.30
2022-09-22T22:14:29.845Z,9.80
2022-09-22T22:19:27.041Z,6.00
2022-09-22T22:21:55.296Z,8.60
2022-09-22T22:24:28.762Z,14.30
2022-09-22T22:27:02.542Z,15.10
2022-09-22T22:29:31.921Z,11.10
2022-09-22T22:31:59.633Z,9.20
2022-09-22T22:34:27.698Z,8.00
2022-09-22T22:36:58.180Z,13.90
2022-09-22T22:39:26.243Z,13.50
2022-09-22T22:42:00.134Z,10.80
2022-09-22T22:44:28.105Z,15.60
2022-09-22T22:46:56.014Z,11.10
2022-09-22T22:49:23.868Z,9.40
2022-09-22T22:51:57.811Z,7.80
2022-09-22T22:54:30.952Z,6.00
2022-09-22T22:56:58.915Z,6.30
2022-09-22T22:59:26.711Z,8.10
2022-09-22T23:01:54.515Z,9.60
2022-09-22T23:04:22.709Z,5.40
2022-09-22T23:06:51.798Z,6.10
2022-09-22T23:09:19.629Z,9.90
2022-09-22T23:11:47.629Z,7.80
2022-09-22T23:14:16.394Z,17.50
2022-09-22T23:16:46.649Z,13.30
2022-09-22T23:19:17.224Z,45.60
2022-09-22T23:21:46.131Z,102.30
2022-09-22T23:24:16.892Z,106.20
2022-09-22T23:26:45.835Z,97.60
2022-09-22T23:29:14.521Z,100.50
2022-09-22T23:31:42.538Z,87.80
2022-09-22T23:34:10.715Z,63.80
2022-09-22T23:36:39.681Z,54.70
2022-09-22T23:39:07.995Z,58.60
2022-09-22T23:41:37.264Z,128.40
2022-09-22T23:44:09.365Z,41.10
2022-09-22T23:46:38.246Z,48.80
2022-09-22T23:49:06.704Z,52.00
2022-09-22T23:51:34.785Z,46.00
2022-09-22T23:54:02.973Z,64.10
2022-09-22T23:56:30.812Z,51.80
2022-09-22T23:58:58.638Z,63.40
